sensor_id;sensor_type;location;lat;lon;timestamp;P1;durP1;ratioP1;P2;durP2;ratioP2
41446;SDS011;27185;52.040;4.490;2024-01-27T00:00:21;12.80;;;2.20;;
41446;SDS011;27185;52.040;4.490;2024-01-27T00:03:07;10.30;;;2.03;;
41446;SDS011;27185;52.040;4.490;2024-01-27T00:05:52;17.33;;;2.40;;
41446;SDS011;27185;52.040;4.490;2024-01-27T00:08:38;21.98;;;3.00;;
41446;SDS011;27185;52.040;4.490;2024-01-27T00:11:23;13.48;;;2.55;;
41446;SDS011;27185;52.040;4.490;2024-01-27T00:14:09;12.73;;;2.28;;
41446;SDS011;27185;52.040;4.490;2024-01-27T00:16:55;14.52;;;3.22;;
41446;SDS011;27185;52.040;4.490;2024-01-27T00:19:40;12.35;;;2.25;;
41446;SDS011;27185;52.040;4.490;2024-01-27T00:22:26;15.82;;;2.35;;
41446;SDS011;27185;52.040;4.490;2024-01-27T00:25:12;15.55;;;2.60;;
41446;SDS011;27185;52.040;4.490;2024-01-27T00:27:58;14.38;;;2.20;;
41446;SDS011;27185;52.040;4.490;2024-01-27T00:30:43;18.73;;;2.88;;
41446;SDS011;27185;52.040;4.490;2024-01-27T00:33:29;14.23;;;2.55;;
41446;SDS011;27185;52.040;4.490;2024-01-27T00:36:14;15.95;;;2.63;;
41446;SDS011;27185;52.040;4.490;2024-01-27T00:39:00;10.55;;;2.40;;
41446;SDS011;27185;52.040;4.490;2024-01-27T00:41:45;24.50;;;3.42;;
41446;SDS011;27185;52.040;4.490;2024-01-27T00:44:31;9.20;;;1.88;;
41446;SDS011;27185;52.040;4.490;2024-01-27T00:47:16;15.75;;;2.05;;
41446;SDS011;27185;52.040;4.490;2024-01-27T00:50:02;12.63;;;2.38;;
41446;SDS011;27185;52.040;4.490;2024-01-27T00:52:48;15.52;;;1.95;;
41446;SDS011;27185;52.040;4.490;2024-01-27T00:55:33;15.05;;;1.85;;
41446;SDS011;27185;52.040;4.490;2024-01-27T00:58:19;13.38;;;2.00;;
41446;SDS011;27185;52.040;4.490;2024-01-27T01:01:05;22.17;;;2.30;;
41446;SDS011;27185;52.040;4.490;2024-01-27T01:03:51;18.08;;;2.65;;
41446;SDS011;27185;52.040;4.490;2024-01-27T01:06:38;21.20;;;3.47;;
41446;SDS011;27185;52.040;4.490;2024-01-27T01:09:25;29.55;;;2.55;;
41446;SDS011;27185;52.040;4.490;2024-01-27T01:12:10;19.60;;;3.05;;
41446;SDS011;27185;52.040;4.490;2024-01-27T01:14:56;16.77;;;3.58;;
41446;SDS011;27185;52.040;4.490;2024-01-27T01:17:42;15.93;;;2.55;;
41446;SDS011;27185;52.040;4.490;2024-01-27T01:20:27;18.70;;;3.42;;
41446;SDS011;27185;52.040;4.490;2024-01-27T01:23:15;35.30;;;3.83;;
41446;SDS011;27185;52.040;4.490;2024-01-27T01:26:00;13.95;;;2.47;;
41446;SDS011;27185;52.040;4.490;2024-01-27T01:28:46;19.15;;;2.30;;
41446;SDS011;27185;52.040;4.490;2024-01-27T01:31:31;14.20;;;2.28;;
41446;SDS011;27185;52.040;4.490;2024-01-27T01:34:17;17.20;;;1.95;;
41446;SDS011;27185;52.040;4.490;2024-01-27T01:37:02;15.93;;;1.92;;
41446;SDS011;27185;52.040;4.490;2024-01-27T01:39:48;15.00;;;2.97;;
41446;SDS011;27185;52.040;4.490;2024-01-27T01:42:34;16.23;;;1.85;;
41446;SDS011;27185;52.040;4.490;2024-01-27T01:45:19;17.08;;;1.98;;
41446;SDS011;27185;52.040;4.490;2024-01-27T01:48:05;20.23;;;2.35;;
41446;SDS011;27185;52.040;4.490;2024-01-27T01:50:52;16.23;;;1.60;;
41446;SDS011;27185;52.040;4.490;2024-01-27T01:53:38;15.93;;;1.92;;
41446;SDS011;27185;52.040;4.490;2024-01-27T01:56:23;12.68;;;2.08;;
41446;SDS011;27185;52.040;4.490;2024-01-27T01:59:09;17.17;;;2.45;;
41446;SDS011;27185;52.040;4.490;2024-01-27T02:01:55;16.30;;;1.67;;
41446;SDS011;27185;52.040;4.490;2024-01-27T02:04:41;10.25;;;1.90;;
41446;SDS011;27185;52.040;4.490;2024-01-27T02:07:27;14.48;;;1.48;;
41446;SDS011;27185;52.040;4.490;2024-01-27T02:10:16;19.35;;;2.03;;
41446;SDS011;27185;52.040;4.490;2024-01-27T02:13:04;13.38;;;2.20;;
41446;SDS011;27185;52.040;4.490;2024-01-27T02:16:06;15.95;;;1.85;;
41446;SDS011;27185;52.040;4.490;2024-01-27T02:18:52;20.30;;;2.08;;
41446;SDS011;27185;52.040;4.490;2024-01-27T02:21:37;16.27;;;1.90;;
41446;SDS011;27185;52.040;4.490;2024-01-27T02:24:23;12.60;;;2.33;;
41446;SDS011;27185;52.040;4.490;2024-01-27T02:27:08;13.25;;;1.67;;
41446;SDS011;27185;52.040;4.490;2024-01-27T02:29:54;11.95;;;2.30;;
41446;SDS011;27185;52.040;4.490;2024-01-27T02:32:40;13.57;;;1.95;;
41446;SDS011;27185;52.040;4.490;2024-01-27T02:35:25;11.18;;;1.25;;
41446;SDS011;27185;52.040;4.490;2024-01-27T02:38:11;10.55;;;1.35;;
41446;SDS011;27185;52.040;4.490;2024-01-27T02:40:56;15.80;;;2.58;;
41446;SDS011;27185;52.040;4.490;2024-01-27T02:43:42;13.82;;;1.90;;
41446;SDS011;27185;52.040;4.490;2024-01-27T02:46:27;16.92;;;2.60;;
41446;SDS011;27185;52.040;4.490;2024-01-27T02:49:13;16.25;;;2.40;;
41446;SDS011;27185;52.040;4.490;2024-01-27T02:51:59;16.98;;;1.88;;
41446;SDS011;27185;52.040;4.490;2024-01-27T02:54:44;15.32;;;1.70;;
41446;SDS011;27185;52.040;4.490;2024-01-27T02:57:30;14.57;;;1.77;;
41446;SDS011;27185;52.040;4.490;2024-01-27T03:00:16;11.43;;;2.42;;
41446;SDS011;27185;52.040;4.490;2024-01-27T03:03:02;11.65;;;1.42;;
41446;SDS011;27185;52.040;4.490;2024-01-27T03:05:48;15.27;;;1.83;;
41446;SDS011;27185;52.040;4.490;2024-01-27T03:08:33;12.55;;;1.98;;
41446;SDS011;27185;52.040;4.490;2024-01-27T03:11:19;13.48;;;1.45;;
41446;SDS011;27185;52.040;4.490;2024-01-27T03:14:04;16.42;;;2.33;;
41446;SDS011;27185;52.040;4.490;2024-01-27T03:16:50;13.15;;;2.28;;
41446;SDS011;27185;52.040;4.490;2024-01-27T03:19:36;11.52;;;1.85;;
41446;SDS011;27185;52.040;4.490;2024-01-27T03:22:21;23.35;;;2.58;;
41446;SDS011;27185;52.040;4.490;2024-01-27T03:25:07;12.63;;;2.13;;
41446;SDS011;27185;52.040;4.490;2024-01-27T03:27:55;15.95;;;2.40;;
41446;SDS011;27185;52.040;4.490;2024-01-27T03:30:41;15.85;;;2.95;;
41446;SDS011;27185;52.040;4.490;2024-01-27T03:33:26;14.52;;;2.03;;
41446;SDS011;27185;52.040;4.490;2024-01-27T03:36:14;16.60;;;2.42;;
41446;SDS011;27185;52.040;4.490;2024-01-27T03:39:00;14.93;;;2.70;;
41446;SDS011;27185;52.040;4.490;2024-01-27T03:41:45;18.20;;;2.30;;
41446;SDS011;27185;52.040;4.490;2024-01-27T03:44:31;12.95;;;2.78;;
41446;SDS011;27185;52.040;4.490;2024-01-27T03:47:17;14.55;;;2.78;;
41446;SDS011;27185;52.040;4.490;2024-01-27T03:50:03;17.42;;;3.65;;
41446;SDS011;27185;52.040;4.490;2024-01-27T03:52:48;11.93;;;2.30;;
41446;SDS011;27185;52.040;4.490;2024-01-27T03:55:34;14.90;;;2.72;;
41446;SDS011;27185;52.040;4.490;2024-01-27T03:58:20;12.50;;;3.13;;
41446;SDS011;27185;52.040;4.490;2024-01-27T04:01:05;20.98;;;4.18;;
41446;SDS011;27185;52.040;4.490;2024-01-27T04:03:51;24.95;;;4.00;;
41446;SDS011;27185;52.040;4.490;2024-01-27T04:06:37;20.05;;;5.57;;
41446;SDS011;27185;52.040;4.490;2024-01-27T04:09:24;18.70;;;5.03;;
41446;SDS011;27185;52.040;4.490;2024-01-27T04:12:09;19.70;;;5.80;;
41446;SDS011;27185;52.040;4.490;2024-01-27T04:14:55;22.08;;;6.60;;
41446;SDS011;27185;52.040;4.490;2024-01-27T04:17:43;20.38;;;6.00;;
41446;SDS011;27185;52.040;4.490;2024-01-27T04:20:28;16.77;;;4.93;;
41446;SDS011;27185;52.040;4.490;2024-01-27T04:23:14;20.52;;;5.80;;
41446;SDS011;27185;52.040;4.490;2024-01-27T04:26:00;18.30;;;4.95;;
41446;SDS011;27185;52.040;4.490;2024-01-27T04:28:45;18.67;;;6.30;;
41446;SDS011;27185;52.040;4.490;2024-01-27T04:31:31;22.52;;;6.72;;
41446;SDS011;27185;52.040;4.490;2024-01-27T04:34:17;18.48;;;6.15;;
41446;SDS011;27185;52.040;4.490;2024-01-27T04:37:02;16.35;;;6.50;;
41446;SDS011;27185;52.040;4.490;2024-01-27T04:39:48;20.58;;;7.82;;
41446;SDS011;27185;52.040;4.490;2024-01-27T04:42:34;17.60;;;7.03;;
41446;SDS011;27185;52.040;4.490;2024-01-27T04:45:19;15.07;;;6.65;;
41446;SDS011;27185;52.040;4.490;2024-01-27T04:48:05;19.67;;;7.63;;
41446;SDS011;27185;52.040;4.490;2024-01-27T04:50:50;23.92;;;8.65;;
41446;SDS011;27185;52.040;4.490;2024-01-27T04:53:36;24.02;;;8.88;;
41446;SDS011;27185;52.040;4.490;2024-01-27T04:56:22;16.67;;;8.23;;
41446;SDS011;27185;52.040;4.490;2024-01-27T04:59:08;23.92;;;10.40;;
41446;SDS011;27185;52.040;4.490;2024-01-27T05:01:54;16.55;;;9.07;;
41446;SDS011;27185;52.040;4.490;2024-01-27T05:04:40;27.77;;;11.40;;
41446;SDS011;27185;52.040;4.490;2024-01-27T05:07:25;30.00;;;12.73;;
41446;SDS011;27185;52.040;4.490;2024-01-27T05:10:11;31.13;;;11.98;;
41446;SDS011;27185;52.040;4.490;2024-01-27T05:12:57;30.30;;;12.65;;
41446;SDS011;27185;52.040;4.490;2024-01-27T05:15:43;25.88;;;12.15;;
41446;SDS011;27185;52.040;4.490;2024-01-27T05:18:29;23.92;;;11.30;;
41446;SDS011;27185;52.040;4.490;2024-01-27T05:21:14;23.50;;;11.55;;
41446;SDS011;27185;52.040;4.490;2024-01-27T05:24:00;26.70;;;10.80;;
41446;SDS011;27185;52.040;4.490;2024-01-27T05:26:45;24.33;;;11.48;;
41446;SDS011;27185;52.040;4.490;2024-01-27T05:29:31;23.52;;;10.93;;
41446;SDS011;27185;52.040;4.490;2024-01-27T05:32:17;25.48;;;10.75;;
41446;SDS011;27185;52.040;4.490;2024-01-27T05:35:04;23.48;;;10.25;;
41446;SDS011;27185;52.040;4.490;2024-01-27T05:37:50;23.08;;;12.23;;
41446;SDS011;27185;52.040;4.490;2024-01-27T05:40:36;24.48;;;12.13;;
41446;SDS011;27185;52.040;4.490;2024-01-27T05:43:22;30.33;;;11.23;;
41446;SDS011;27185;52.040;4.490;2024-01-27T05:46:08;17.58;;;10.20;;
41446;SDS011;27185;52.040;4.490;2024-01-27T05:48:55;23.83;;;10.77;;
41446;SDS011;27185;52.040;4.490;2024-01-27T05:51:46;24.48;;;10.73;;
41446;SDS011;27185;52.040;4.490;2024-01-27T05:54:31;23.10;;;10.27;;
41446;SDS011;27185;52.040;4.490;2024-01-27T05:57:17;23.35;;;10.35;;
41446;SDS011;27185;52.040;4.490;2024-01-27T06:00:03;25.23;;;11.18;;
41446;SDS011;27185;52.040;4.490;2024-01-27T06:02:49;27.23;;;10.90;;
41446;SDS011;27185;52.040;4.490;2024-01-27T06:05:35;27.08;;;11.65;;
41446;SDS011;27185;52.040;4.490;2024-01-27T06:08:20;25.17;;;11.98;;
41446;SDS011;27185;52.040;4.490;2024-01-27T06:11:06;22.80;;;11.43;;
41446;SDS011;27185;52.040;4.490;2024-01-27T06:13:51;20.38;;;10.20;;
41446;SDS011;27185;52.040;4.490;2024-01-27T06:16:37;16.20;;;9.40;;
41446;SDS011;27185;52.040;4.490;2024-01-27T06:19:23;27.27;;;10.20;;
41446;SDS011;27185;52.040;4.490;2024-01-27T06:22:08;20.52;;;10.82;;
41446;SDS011;27185;52.040;4.490;2024-01-27T06:24:54;20.48;;;9.93;;
41446;SDS011;27185;52.040;4.490;2024-01-27T06:27:39;25.85;;;10.85;;
41446;SDS011;27185;52.040;4.490;2024-01-27T06:30:26;22.20;;;10.30;;
41446;SDS011;27185;52.040;4.490;2024-01-27T06:33:12;24.17;;;10.20;;
41446;SDS011;27185;52.040;4.490;2024-01-27T06:35:57;24.20;;;10.25;;
41446;SDS011;27185;52.040;4.490;2024-01-27T06:38:43;19.05;;;9.38;;
41446;SDS011;27185;52.040;4.490;2024-01-27T06:41:28;24.13;;;10.98;;
41446;SDS011;27185;52.040;4.490;2024-01-27T06:44:14;20.55;;;10.30;;
41446;SDS011;27185;52.040;4.490;2024-01-27T06:46:59;19.02;;;10.95;;
41446;SDS011;27185;52.040;4.490;2024-01-27T06:49:45;22.63;;;10.77;;
41446;SDS011;27185;52.040;4.490;2024-01-27T06:52:31;20.00;;;9.70;;
41446;SDS011;27185;52.040;4.490;2024-01-27T06:55:16;23.33;;;10.43;;
41446;SDS011;27185;52.040;4.490;2024-01-27T06:58:02;23.50;;;10.45;;
41446;SDS011;27185;52.040;4.490;2024-01-27T07:00:48;21.70;;;10.38;;
41446;SDS011;27185;52.040;4.490;2024-01-27T07:03:34;25.17;;;10.63;;
41446;SDS011;27185;52.040;4.490;2024-01-27T07:06:19;25.17;;;10.75;;
41446;SDS011;27185;52.040;4.490;2024-01-27T07:09:05;21.10;;;11.40;;
41446;SDS011;27185;52.040;4.490;2024-01-27T07:11:51;23.13;;;10.57;;
41446;SDS011;27185;52.040;4.490;2024-01-27T07:14:37;24.10;;;11.35;;
41446;SDS011;27185;52.040;4.490;2024-01-27T07:17:22;19.63;;;10.18;;
41446;SDS011;27185;52.040;4.490;2024-01-27T07:20:08;24.90;;;11.02;;
41446;SDS011;27185;52.040;4.490;2024-01-27T07:22:55;31.77;;;12.45;;
41446;SDS011;27185;52.040;4.490;2024-01-27T07:25:41;22.42;;;11.50;;
41446;SDS011;27185;52.040;4.490;2024-01-27T07:28:26;25.08;;;12.35;;
41446;SDS011;27185;52.040;4.490;2024-01-27T07:31:12;26.95;;;13.18;;
41446;SDS011;27185;52.040;4.490;2024-01-27T07:33:59;22.60;;;12.63;;
41446;SDS011;27185;52.040;4.490;2024-01-27T07:36:44;25.10;;;13.38;;
41446;SDS011;27185;52.040;4.490;2024-01-27T07:39:30;19.48;;;12.15;;
41446;SDS011;27185;52.040;4.490;2024-01-27T07:42:16;24.65;;;12.52;;
41446;SDS011;27185;52.040;4.490;2024-01-27T07:45:01;21.05;;;12.48;;
41446;SDS011;27185;52.040;4.490;2024-01-27T07:47:47;27.20;;;13.77;;
41446;SDS011;27185;52.040;4.490;2024-01-27T07:50:32;24.25;;;12.65;;
41446;SDS011;27185;52.040;4.490;2024-01-27T07:53:18;26.35;;;12.27;;
41446;SDS011;27185;52.040;4.490;2024-01-27T07:56:04;27.52;;;12.77;;
41446;SDS011;27185;52.040;4.490;2024-01-27T07:58:50;26.02;;;12.25;;
41446;SDS011;27185;52.040;4.490;2024-01-27T08:01:35;22.80;;;11.68;;
41446;SDS011;27185;52.040;4.490;2024-01-27T08:04:21;23.35;;;12.77;;
41446;SDS011;27185;52.040;4.490;2024-01-27T08:07:06;21.25;;;11.57;;
41446;SDS011;27185;52.040;4.490;2024-01-27T08:09:54;26.45;;;12.27;;
41446;SDS011;27185;52.040;4.490;2024-01-27T08:12:42;25.58;;;11.68;;
41446;SDS011;27185;52.040;4.490;2024-01-27T08:15:27;22.67;;;12.15;;
41446;SDS011;27185;52.040;4.490;2024-01-27T08:18:13;25.23;;;12.70;;
41446;SDS011;27185;52.040;4.490;2024-01-27T08:20:58;29.35;;;13.23;;
41446;SDS011;27185;52.040;4.490;2024-01-27T08:23:44;23.52;;;13.23;;
41446;SDS011;27185;52.040;4.490;2024-01-27T08:26:30;26.30;;;15.10;;
41446;SDS011;27185;52.040;4.490;2024-01-27T08:29:16;28.35;;;14.55;;
41446;SDS011;27185;52.040;4.490;2024-01-27T08:32:01;32.63;;;14.20;;
41446;SDS011;27185;52.040;4.490;2024-01-27T08:34:47;33.70;;;15.20;;
41446;SDS011;27185;52.040;4.490;2024-01-27T08:37:33;26.48;;;15.55;;
41446;SDS011;27185;52.040;4.490;2024-01-27T08:40:23;28.83;;;14.88;;
41446;SDS011;27185;52.040;4.490;2024-01-27T08:43:09;31.77;;;16.08;;
41446;SDS011;27185;52.040;4.490;2024-01-27T08:45:55;26.30;;;14.98;;
41446;SDS011;27185;52.040;4.490;2024-01-27T08:48:41;29.05;;;14.90;;
41446;SDS011;27185;52.040;4.490;2024-01-27T08:51:27;28.45;;;14.90;;
41446;SDS011;27185;52.040;4.490;2024-01-27T08:54:12;32.20;;;17.30;;
41446;SDS011;27185;52.040;4.490;2024-01-27T08:56:58;25.65;;;16.08;;
41446;SDS011;27185;52.040;4.490;2024-01-27T08:59:43;27.50;;;15.75;;
41446;SDS011;27185;52.040;4.490;2024-01-27T09:02:29;35.03;;;15.23;;
41446;SDS011;27185;52.040;4.490;2024-01-27T09:05:14;33.83;;;16.27;;
41446;SDS011;27185;52.040;4.490;2024-01-27T09:08:00;27.00;;;15.02;;
41446;SDS011;27185;52.040;4.490;2024-01-27T09:10:46;21.65;;;14.35;;
41446;SDS011;27185;52.040;4.490;2024-01-27T09:13:33;33.67;;;14.95;;
41446;SDS011;27185;52.040;4.490;2024-01-27T09:16:19;30.40;;;14.55;;
41446;SDS011;27185;52.040;4.490;2024-01-27T09:19:04;35.22;;;16.50;;
41446;SDS011;27185;52.040;4.490;2024-01-27T09:21:50;30.27;;;16.60;;
41446;SDS011;27185;52.040;4.490;2024-01-27T09:24:35;34.08;;;17.75;;
41446;SDS011;27185;52.040;4.490;2024-01-27T09:27:21;38.10;;;17.63;;
41446;SDS011;27185;52.040;4.490;2024-01-27T09:30:07;29.27;;;15.55;;
41446;SDS011;27185;52.040;4.490;2024-01-27T09:32:53;29.60;;;15.25;;
41446;SDS011;27185;52.040;4.490;2024-01-27T09:35:38;27.65;;;15.63;;
41446;SDS011;27185;52.040;4.490;2024-01-27T09:38:24;30.70;;;15.70;;
41446;SDS011;27185;52.040;4.490;2024-01-27T09:41:10;32.95;;;16.75;;
41446;SDS011;27185;52.040;4.490;2024-01-27T09:43:59;32.75;;;16.25;;
41446;SDS011;27185;52.040;4.490;2024-01-27T09:46:47;33.17;;;15.63;;
41446;SDS011;27185;52.040;4.490;2024-01-27T09:49:33;28.00;;;14.07;;
41446;SDS011;27185;52.040;4.490;2024-01-27T09:52:20;32.60;;;14.57;;
41446;SDS011;27185;52.040;4.490;2024-01-27T09:55:07;24.73;;;13.00;;
41446;SDS011;27185;52.040;4.490;2024-01-27T09:57:52;32.95;;;14.48;;
41446;SDS011;27185;52.040;4.490;2024-01-27T10:00:39;27.67;;;14.18;;
41446;SDS011;27185;52.040;4.490;2024-01-27T10:03:26;28.13;;;12.95;;
41446;SDS011;27185;52.040;4.490;2024-01-27T10:06:13;31.95;;;13.43;;
41446;SDS011;27185;52.040;4.490;2024-01-27T10:08:59;21.63;;;11.55;;
41446;SDS011;27185;52.040;4.490;2024-01-27T10:11:45;25.77;;;11.25;;
41446;SDS011;27185;52.040;4.490;2024-01-27T10:14:39;21.80;;;11.65;;
41446;SDS011;27185;52.040;4.490;2024-01-27T10:17:25;25.23;;;11.65;;
41446;SDS011;27185;52.040;4.490;2024-01-27T10:20:14;21.00;;;11.02;;
41446;SDS011;27185;52.040;4.490;2024-01-27T10:23:10;30.27;;;11.35;;
41446;SDS011;27185;52.040;4.490;2024-01-27T10:25:56;26.90;;;10.50;;
41446;SDS011;27185;52.040;4.490;2024-01-27T10:28:42;27.15;;;9.82;;
41446;SDS011;27185;52.040;4.490;2024-01-27T10:31:28;19.70;;;9.50;;
41446;SDS011;27185;52.040;4.490;2024-01-27T10:34:19;22.05;;;9.50;;
41446;SDS011;27185;52.040;4.490;2024-01-27T10:37:05;26.27;;;10.13;;
41446;SDS011;27185;52.040;4.490;2024-01-27T10:39:58;19.58;;;8.70;;
41446;SDS011;27185;52.040;4.490;2024-01-27T10:42:45;28.25;;;9.00;;
41446;SDS011;27185;52.040;4.490;2024-01-27T10:45:35;22.42;;;7.65;;
41446;SDS011;27185;52.040;4.490;2024-01-27T10:48:21;22.67;;;7.88;;
41446;SDS011;27185;52.040;4.490;2024-01-27T10:51:10;19.25;;;7.15;;
41446;SDS011;27185;52.040;4.490;2024-01-27T10:54:00;20.10;;;7.30;;
41446;SDS011;27185;52.040;4.490;2024-01-27T10:56:47;26.92;;;7.45;;
41446;SDS011;27185;52.040;4.490;2024-01-27T10:59:35;19.73;;;6.93;;
41446;SDS011;27185;52.040;4.490;2024-01-27T11:02:22;24.48;;;7.68;;
41446;SDS011;27185;52.040;4.490;2024-01-27T11:05:08;21.23;;;6.93;;
41446;SDS011;27185;52.040;4.490;2024-01-27T11:07:56;19.80;;;6.78;;
41446;SDS011;27185;52.040;4.490;2024-01-27T11:10:43;20.80;;;6.95;;
41446;SDS011;27185;52.040;4.490;2024-01-27T11:13:30;21.17;;;7.30;;
41446;SDS011;27185;52.040;4.490;2024-01-27T11:16:18;16.83;;;5.97;;
41446;SDS011;27185;52.040;4.490;2024-01-27T11:19:04;16.08;;;6.13;;
41446;SDS011;27185;52.040;4.490;2024-01-27T11:22:03;20.20;;;6.47;;
41446;SDS011;27185;52.040;4.490;2024-01-27T11:24:49;20.00;;;7.13;;
41446;SDS011;27185;52.040;4.490;2024-01-27T11:27:34;21.45;;;7.18;;
41446;SDS011;27185;52.040;4.490;2024-01-27T11:30:30;19.98;;;6.40;;
41446;SDS011;27185;52.040;4.490;2024-01-27T11:36:04;15.30;;;5.43;;
41446;SDS011;27185;52.040;4.490;2024-01-27T11:38:51;18.40;;;6.28;;
41446;SDS011;27185;52.040;4.490;2024-01-27T11:41:37;27.40;;;7.05;;
41446;SDS011;27185;52.040;4.490;2024-01-27T11:44:26;16.52;;;5.72;;
41446;SDS011;27185;52.040;4.490;2024-01-27T11:47:15;20.83;;;7.15;;
41446;SDS011;27185;52.040;4.490;2024-01-27T11:50:02;18.00;;;6.65;;
41446;SDS011;27185;52.040;4.490;2024-01-27T11:52:48;16.83;;;6.03;;
41446;SDS011;27185;52.040;4.490;2024-01-27T11:55:34;27.42;;;6.25;;
41446;SDS011;27185;52.040;4.490;2024-01-27T11:58:19;21.70;;;7.28;;
41446;SDS011;27185;52.040;4.490;2024-01-27T12:01:05;20.83;;;6.82;;
41446;SDS011;27185;52.040;4.490;2024-01-27T12:03:50;23.20;;;7.28;;
41446;SDS011;27185;52.040;4.490;2024-01-27T12:06:37;23.42;;;7.07;;
41446;SDS011;27185;52.040;4.490;2024-01-27T12:09:24;20.73;;;6.93;;
41446;SDS011;27185;52.040;4.490;2024-01-27T12:12:09;26.55;;;6.88;;
41446;SDS011;27185;52.040;4.490;2024-01-27T12:17:49;16.35;;;6.05;;
41446;SDS011;27185;52.040;4.490;2024-01-27T12:20:37;17.58;;;6.72;;
41446;SDS011;27185;52.040;4.490;2024-01-27T12:23:23;17.98;;;6.20;;
41446;SDS011;27185;52.040;4.490;2024-01-27T12:26:13;20.25;;;6.78;;
41446;SDS011;27185;52.040;4.490;2024-01-27T12:29:01;17.95;;;6.00;;
41446;SDS011;27185;52.040;4.490;2024-01-27T12:31:46;19.48;;;6.32;;
41446;SDS011;27185;52.040;4.490;2024-01-27T12:34:32;21.65;;;6.28;;
41446;SDS011;27185;52.040;4.490;2024-01-27T12:37:18;18.30;;;6.05;;
41446;SDS011;27185;52.040;4.490;2024-01-27T12:43:05;19.10;;;5.63;;
41446;SDS011;27185;52.040;4.490;2024-01-27T12:45:50;22.33;;;6.18;;
41446;SDS011;27185;52.040;4.490;2024-01-27T12:48:36;19.50;;;5.50;;
41446;SDS011;27185;52.040;4.490;2024-01-27T12:51:21;20.15;;;5.63;;
41446;SDS011;27185;52.040;4.490;2024-01-27T12:54:07;21.80;;;5.50;;
41446;SDS011;27185;52.040;4.490;2024-01-27T12:56:53;18.67;;;5.30;;
41446;SDS011;27185;52.040;4.490;2024-01-27T12:59:38;16.00;;;5.53;;
41446;SDS011;27185;52.040;4.490;2024-01-27T13:02:24;15.75;;;5.30;;
41446;SDS011;27185;52.040;4.490;2024-01-27T13:05:10;23.77;;;5.68;;
41446;SDS011;27185;52.040;4.490;2024-01-27T13:07:56;25.58;;;5.53;;
41446;SDS011;27185;52.040;4.490;2024-01-27T13:10:41;20.02;;;5.35;;
41446;SDS011;27185;52.040;4.490;2024-01-27T13:13:27;15.60;;;4.78;;
41446;SDS011;27185;52.040;4.490;2024-01-27T13:16:13;17.63;;;5.78;;
41446;SDS011;27185;52.040;4.490;2024-01-27T13:18:58;13.45;;;4.90;;
41446;SDS011;27185;52.040;4.490;2024-01-27T13:21:44;16.08;;;5.60;;
41446;SDS011;27185;52.040;4.490;2024-01-27T13:24:29;19.92;;;6.00;;
41446;SDS011;27185;52.040;4.490;2024-01-27T13:27:15;25.30;;;5.88;;
41446;SDS011;27185;52.040;4.490;2024-01-27T13:30:01;14.57;;;4.38;;
41446;SDS011;27185;52.040;4.490;2024-01-27T13:32:46;16.77;;;4.75;;
41446;SDS011;27185;52.040;4.490;2024-01-27T13:35:32;11.45;;;4.13;;
41446;SDS011;27185;52.040;4.490;2024-01-27T13:38:17;16.00;;;4.53;;
41446;SDS011;27185;52.040;4.490;2024-01-27T13:41:08;21.05;;;4.63;;
41446;SDS011;27185;52.040;4.490;2024-01-27T13:43:53;17.73;;;4.35;;
41446;SDS011;27185;52.040;4.490;2024-01-27T13:46:39;16.83;;;4.38;;
41446;SDS011;27185;52.040;4.490;2024-01-27T13:49:25;15.50;;;3.72;;
41446;SDS011;27185;52.040;4.490;2024-01-27T13:52:10;13.02;;;3.88;;
41446;SDS011;27185;52.040;4.490;2024-01-27T13:54:56;16.40;;;3.75;;
41446;SDS011;27185;52.040;4.490;2024-01-27T13:57:43;12.07;;;4.35;;
41446;SDS011;27185;52.040;4.490;2024-01-27T14:00:29;12.60;;;3.45;;
41446;SDS011;27185;52.040;4.490;2024-01-27T14:03:15;17.52;;;3.78;;
41446;SDS011;27185;52.040;4.490;2024-01-27T14:06:01;14.52;;;3.78;;
41446;SDS011;27185;52.040;4.490;2024-01-27T14:08:47;13.70;;;3.78;;
41446;SDS011;27185;52.040;4.490;2024-01-27T14:11:33;13.35;;;3.65;;
41446;SDS011;27185;52.040;4.490;2024-01-27T14:14:18;15.68;;;4.28;;
41446;SDS011;27185;52.040;4.490;2024-01-27T14:17:04;17.70;;;4.63;;
41446;SDS011;27185;52.040;4.490;2024-01-27T14:19:49;17.58;;;4.40;;
41446;SDS011;27185;52.040;4.490;2024-01-27T14:22:35;18.48;;;4.60;;
41446;SDS011;27185;52.040;4.490;2024-01-27T14:25:21;16.77;;;3.67;;
41446;SDS011;27185;52.040;4.490;2024-01-27T14:28:06;14.07;;;4.10;;
41446;SDS011;27185;52.040;4.490;2024-01-27T14:30:54;16.73;;;4.13;;
41446;SDS011;27185;52.040;4.490;2024-01-27T14:33:40;17.65;;;4.50;;
41446;SDS011;27185;52.040;4.490;2024-01-27T14:36:26;16.23;;;4.22;;
41446;SDS011;27185;52.040;4.490;2024-01-27T14:39:11;14.55;;;4.22;;
41446;SDS011;27185;52.040;4.490;2024-01-27T14:41:57;12.68;;;3.72;;
41446;SDS011;27185;52.040;4.490;2024-01-27T14:44:42;18.25;;;4.40;;
41446;SDS011;27185;52.040;4.490;2024-01-27T14:47:30;20.05;;;4.88;;
41446;SDS011;27185;52.040;4.490;2024-01-27T14:50:15;14.85;;;3.70;;
41446;SDS011;27185;52.040;4.490;2024-01-27T14:53:01;17.63;;;4.03;;
41446;SDS011;27185;52.040;4.490;2024-01-27T14:55:51;16.83;;;3.95;;
41446;SDS011;27185;52.040;4.490;2024-01-27T14:58:36;20.45;;;4.32;;
41446;SDS011;27185;52.040;4.490;2024-01-27T15:01:23;16.08;;;5.05;;
41446;SDS011;27185;52.040;4.490;2024-01-27T15:04:09;15.10;;;4.05;;
41446;SDS011;27185;52.040;4.490;2024-01-27T15:06:55;18.05;;;4.07;;
41446;SDS011;27185;52.040;4.490;2024-01-27T15:09:42;13.93;;;4.28;;
41446;SDS011;27185;52.040;4.490;2024-01-27T15:12:27;18.50;;;4.18;;
41446;SDS011;27185;52.040;4.490;2024-01-27T15:15:13;16.08;;;4.60;;
41446;SDS011;27185;52.040;4.490;2024-01-27T15:17:59;19.67;;;4.45;;
41446;SDS011;27185;52.040;4.490;2024-01-27T15:20:45;14.20;;;4.15;;
41446;SDS011;27185;52.040;4.490;2024-01-27T15:23:31;13.88;;;4.57;;
41446;SDS011;27185;52.040;4.490;2024-01-27T15:26:16;17.25;;;4.28;;
41446;SDS011;27185;52.040;4.490;2024-01-27T15:29:02;12.00;;;3.60;;
41446;SDS011;27185;52.040;4.490;2024-01-27T15:31:48;16.27;;;3.97;;
41446;SDS011;27185;52.040;4.490;2024-01-27T15:34:33;16.50;;;5.57;;
41446;SDS011;27185;52.040;4.490;2024-01-27T15:37:19;11.45;;;5.30;;
41446;SDS011;27185;52.040;4.490;2024-01-27T15:40:05;18.25;;;5.63;;
41446;SDS011;27185;52.040;4.490;2024-01-27T15:42:51;17.20;;;5.30;;
41446;SDS011;27185;52.040;4.490;2024-01-27T15:45:37;14.00;;;5.03;;
41446;SDS011;27185;52.040;4.490;2024-01-27T15:48:22;17.67;;;5.00;;
41446;SDS011;27185;52.040;4.490;2024-01-27T15:51:08;16.23;;;6.32;;
41446;SDS011;27185;52.040;4.490;2024-01-27T15:53:54;19.90;;;6.30;;
41446;SDS011;27185;52.040;4.490;2024-01-27T15:56:39;19.35;;;6.07;;
41446;SDS011;27185;52.040;4.490;2024-01-27T15:59:25;16.38;;;5.72;;
41446;SDS011;27185;52.040;4.490;2024-01-27T16:02:10;15.13;;;6.38;;
41446;SDS011;27185;52.040;4.490;2024-01-27T16:04:56;20.55;;;6.38;;
41446;SDS011;27185;52.040;4.490;2024-01-27T16:07:42;23.73;;;6.80;;
41446;SDS011;27185;52.040;4.490;2024-01-27T16:10:27;20.45;;;6.65;;
41446;SDS011;27185;52.040;4.490;2024-01-27T16:13:13;22.33;;;7.05;;
41446;SDS011;27185;52.040;4.490;2024-01-27T16:15:58;15.77;;;6.07;;
41446;SDS011;27185;52.040;4.490;2024-01-27T16:18:44;23.52;;;7.90;;
41446;SDS011;27185;52.040;4.490;2024-01-27T16:21:29;21.00;;;6.05;;
41446;SDS011;27185;52.040;4.490;2024-01-27T16:24:15;22.30;;;7.38;;
41446;SDS011;27185;52.040;4.490;2024-01-27T16:27:00;16.55;;;6.32;;
41446;SDS011;27185;52.040;4.490;2024-01-27T16:29:46;21.25;;;6.68;;